Mooresville, Indiana
Current Conditions -  °F | °C
As of 12:54 PM on Monday 26 Jan 2015 (Local Time) from KIND Reporting Station
Broken Clouds Broken Clouds  
Wind Chill: 14°   Ceiling: 1700
Heat Index: 23°   Visibility: 10mi
Dew Point: 18°   Wind: 8mph
Humidity: 81%   Direction: 300°WNW
Pressure: 29.92"   Gusts: NA
Location:  39.61°N, 86.37°W
Report Text: KIND 261754Z 30007KT 10SM BKN017 BKN180 M05/M08 A2992 RMK AO2 SLP142 T10501078 11039 21083 58005
Loading
Personal Weather Stations






























Interactive Weather Map New forecast layout! Learn more

10-Day Weather Forecast

Advertisements
Track Severe Weather on mobile